sensor_id;sensor_type;location;lat;lon;timestamp;P1;durP1;ratioP1;P2;durP2;ratioP2
25948;SDS011;13961;51.178;4.448;2023-07-16T00:02:06;6.50;;;1.77;;
25948;SDS011;13961;51.178;4.448;2023-07-16T00:04:32;9.98;;;2.30;;
25948;SDS011;13961;51.178;4.448;2023-07-16T00:06:59;5.28;;;1.63;;
25948;SDS011;13961;51.178;4.448;2023-07-16T00:09:26;6.13;;;2.38;;
25948;SDS011;13961;51.178;4.448;2023-07-16T00:11:52;5.88;;;1.80;;
25948;SDS011;13961;51.178;4.448;2023-07-16T00:14:18;9.02;;;2.30;;
25948;SDS011;13961;51.178;4.448;2023-07-16T00:16:43;6.03;;;2.03;;
25948;SDS011;13961;51.178;4.448;2023-07-16T00:19:10;7.22;;;1.83;;
25948;SDS011;13961;51.178;4.448;2023-07-16T00:21:36;5.53;;;1.90;;
25948;SDS011;13961;51.178;4.448;2023-07-16T00:24:03;6.07;;;1.77;;
25948;SDS011;13961;51.178;4.448;2023-07-16T00:26:28;9.15;;;2.20;;
25948;SDS011;13961;51.178;4.448;2023-07-16T00:28:54;7.78;;;2.20;;
25948;SDS011;13961;51.178;4.448;2023-07-16T00:31:20;7.63;;;1.98;;
25948;SDS011;13961;51.178;4.448;2023-07-16T00:33:45;9.02;;;2.60;;
25948;SDS011;13961;51.178;4.448;2023-07-16T00:36:11;9.35;;;2.20;;
25948;SDS011;13961;51.178;4.448;2023-07-16T00:38:37;7.20;;;2.20;;
25948;SDS011;13961;51.178;4.448;2023-07-16T00:41:04;9.30;;;2.42;;
25948;SDS011;13961;51.178;4.448;2023-07-16T00:43:30;8.15;;;2.63;;
25948;SDS011;13961;51.178;4.448;2023-07-16T00:45:56;7.78;;;2.45;;
25948;SDS011;13961;51.178;4.448;2023-07-16T00:48:22;10.75;;;2.33;;
25948;SDS011;13961;51.178;4.448;2023-07-16T00:50:49;7.38;;;2.65;;
25948;SDS011;13961;51.178;4.448;2023-07-16T00:53:17;9.15;;;2.33;;
25948;SDS011;13961;51.178;4.448;2023-07-16T00:55:42;3.67;;;1.83;;
25948;SDS011;13961;51.178;4.448;2023-07-16T00:58:08;5.95;;;2.30;;
25948;SDS011;13961;51.178;4.448;2023-07-16T01:00:34;6.55;;;1.98;;
25948;SDS011;13961;51.178;4.448;2023-07-16T01:03:05;6.63;;;1.80;;
25948;SDS011;13961;51.178;4.448;2023-07-16T01:08:08;5.18;;;1.90;;
25948;SDS011;13961;51.178;4.448;2023-07-16T01:10:38;6.82;;;2.08;;
25948;SDS011;13961;51.178;4.448;2023-07-16T01:13:05;5.78;;;1.98;;
25948;SDS011;13961;51.178;4.448;2023-07-16T01:15:31;6.43;;;1.83;;
25948;SDS011;13961;51.178;4.448;2023-07-16T01:17:57;9.82;;;1.90;;
25948;SDS011;13961;51.178;4.448;2023-07-16T01:20:23;8.48;;;1.67;;
25948;SDS011;13961;51.178;4.448;2023-07-16T01:28:53;7.82;;;1.60;;
25948;SDS011;13961;51.178;4.448;2023-07-16T01:31:34;3.17;;;1.58;;
25948;SDS011;13961;51.178;4.448;2023-07-16T01:34:00;5.93;;;2.05;;
25948;SDS011;13961;51.178;4.448;2023-07-16T01:36:28;10.25;;;1.63;;
25948;SDS011;13961;51.178;4.448;2023-07-16T01:38:55;6.38;;;1.85;;
25948;SDS011;13961;51.178;4.448;2023-07-16T01:41:21;3.78;;;1.85;;
25948;SDS011;13961;51.178;4.448;2023-07-16T01:43:46;9.07;;;2.13;;
25948;SDS011;13961;51.178;4.448;2023-07-16T01:46:12;9.68;;;2.05;;
25948;SDS011;13961;51.178;4.448;2023-07-16T01:48:38;7.13;;;2.35;;
25948;SDS011;13961;51.178;4.448;2023-07-16T01:51:04;8.07;;;2.40;;
25948;SDS011;13961;51.178;4.448;2023-07-16T01:53:30;7.53;;;2.40;;
25948;SDS011;13961;51.178;4.448;2023-07-16T01:55:56;7.85;;;2.10;;
25948;SDS011;13961;51.178;4.448;2023-07-16T01:58:22;5.40;;;2.42;;
25948;SDS011;13961;51.178;4.448;2023-07-16T02:00:49;5.25;;;2.20;;
25948;SDS011;13961;51.178;4.448;2023-07-16T02:03:15;8.10;;;2.40;;
25948;SDS011;13961;51.178;4.448;2023-07-16T02:05:40;7.85;;;2.45;;
25948;SDS011;13961;51.178;4.448;2023-07-16T02:08:06;6.03;;;2.03;;
25948;SDS011;13961;51.178;4.448;2023-07-16T02:10:32;5.63;;;2.28;;
25948;SDS011;13961;51.178;4.448;2023-07-16T02:12:57;7.18;;;2.28;;
25948;SDS011;13961;51.178;4.448;2023-07-16T02:15:23;10.57;;;2.47;;
25948;SDS011;13961;51.178;4.448;2023-07-16T02:17:49;4.75;;;2.08;;
25948;SDS011;13961;51.178;4.448;2023-07-16T02:20:14;4.95;;;2.10;;
25948;SDS011;13961;51.178;4.448;2023-07-16T02:22:40;9.05;;;2.10;;
25948;SDS011;13961;51.178;4.448;2023-07-16T02:25:06;10.05;;;2.50;;
25948;SDS011;13961;51.178;4.448;2023-07-16T02:27:31;10.35;;;2.75;;
25948;SDS011;13961;51.178;4.448;2023-07-16T02:29:57;6.95;;;3.05;;
25948;SDS011;13961;51.178;4.448;2023-07-16T02:32:23;8.35;;;2.58;;
25948;SDS011;13961;51.178;4.448;2023-07-16T02:34:49;6.55;;;2.80;;
25948;SDS011;13961;51.178;4.448;2023-07-16T02:37:14;10.27;;;3.47;;
25948;SDS011;13961;51.178;4.448;2023-07-16T02:39:41;8.00;;;2.60;;
25948;SDS011;13961;51.178;4.448;2023-07-16T02:42:07;8.25;;;2.70;;
25948;SDS011;13961;51.178;4.448;2023-07-16T02:44:33;6.75;;;3.35;;
25948;SDS011;13961;51.178;4.448;2023-07-16T02:46:59;11.23;;;3.40;;
25948;SDS011;13961;51.178;4.448;2023-07-16T02:49:24;9.15;;;3.20;;
25948;SDS011;13961;51.178;4.448;2023-07-16T02:51:50;7.60;;;3.28;;
25948;SDS011;13961;51.178;4.448;2023-07-16T02:54:16;8.30;;;3.00;;
25948;SDS011;13961;51.178;4.448;2023-07-16T02:56:41;6.60;;;3.53;;
25948;SDS011;13961;51.178;4.448;2023-07-16T02:59:07;8.35;;;3.47;;
25948;SDS011;13961;51.178;4.448;2023-07-16T03:01:32;6.13;;;3.08;;
25948;SDS011;13961;51.178;4.448;2023-07-16T03:03:58;6.03;;;3.00;;
25948;SDS011;13961;51.178;4.448;2023-07-16T03:06:24;10.75;;;3.67;;
25948;SDS011;13961;51.178;4.448;2023-07-16T03:08:49;7.13;;;3.25;;
25948;SDS011;13961;51.178;4.448;2023-07-16T03:11:15;7.22;;;3.45;;
25948;SDS011;13961;51.178;4.448;2023-07-16T03:13:40;11.00;;;3.33;;
25948;SDS011;13961;51.178;4.448;2023-07-16T03:16:06;6.43;;;3.35;;
25948;SDS011;13961;51.178;4.448;2023-07-16T03:18:32;8.55;;;3.28;;
25948;SDS011;13961;51.178;4.448;2023-07-16T03:20:57;7.07;;;3.33;;
25948;SDS011;13961;51.178;4.448;2023-07-16T03:23:23;6.53;;;3.05;;
25948;SDS011;13961;51.178;4.448;2023-07-16T03:25:49;7.97;;;3.83;;
25948;SDS011;13961;51.178;4.448;2023-07-16T03:28:15;6.75;;;3.30;;
25948;SDS011;13961;51.178;4.448;2023-07-16T03:30:44;7.70;;;3.10;;
25948;SDS011;13961;51.178;4.448;2023-07-16T03:33:14;7.40;;;3.67;;
25948;SDS011;13961;51.178;4.448;2023-07-16T03:35:43;9.38;;;4.25;;
25948;SDS011;13961;51.178;4.448;2023-07-16T03:38:10;8.98;;;3.78;;
25948;SDS011;13961;51.178;4.448;2023-07-16T03:40:36;10.85;;;3.85;;
25948;SDS011;13961;51.178;4.448;2023-07-16T03:43:02;7.28;;;3.85;;
25948;SDS011;13961;51.178;4.448;2023-07-16T03:45:27;8.20;;;3.85;;
25948;SDS011;13961;51.178;4.448;2023-07-16T03:47:53;10.90;;;4.20;;
25948;SDS011;13961;51.178;4.448;2023-07-16T03:50:19;8.88;;;3.75;;
25948;SDS011;13961;51.178;4.448;2023-07-16T03:52:44;10.27;;;4.10;;
25948;SDS011;13961;51.178;4.448;2023-07-16T03:55:10;10.95;;;4.30;;
25948;SDS011;13961;51.178;4.448;2023-07-16T03:57:36;8.13;;;4.03;;
25948;SDS011;13961;51.178;4.448;2023-07-16T04:00:05;8.43;;;3.83;;
25948;SDS011;13961;51.178;4.448;2023-07-16T04:02:33;9.60;;;4.25;;
25948;SDS011;13961;51.178;4.448;2023-07-16T04:04:59;9.60;;;3.90;;
25948;SDS011;13961;51.178;4.448;2023-07-16T04:07:24;9.02;;;3.65;;
25948;SDS011;13961;51.178;4.448;2023-07-16T04:09:50;10.68;;;4.10;;
25948;SDS011;13961;51.178;4.448;2023-07-16T04:12:16;7.57;;;4.15;;
25948;SDS011;13961;51.178;4.448;2023-07-16T04:14:42;9.30;;;4.03;;
25948;SDS011;13961;51.178;4.448;2023-07-16T04:17:08;7.95;;;3.88;;
25948;SDS011;13961;51.178;4.448;2023-07-16T04:19:33;12.73;;;4.50;;
25948;SDS011;13961;51.178;4.448;2023-07-16T04:21:59;9.82;;;4.22;;
25948;SDS011;13961;51.178;4.448;2023-07-16T04:24:25;11.77;;;4.38;;
25948;SDS011;13961;51.178;4.448;2023-07-16T04:26:52;10.30;;;4.60;;
25948;SDS011;13961;51.178;4.448;2023-07-16T04:29:21;9.80;;;4.35;;
25948;SDS011;13961;51.178;4.448;2023-07-16T04:31:47;13.93;;;4.88;;
25948;SDS011;13961;51.178;4.448;2023-07-16T04:34:13;8.98;;;4.30;;
25948;SDS011;13961;51.178;4.448;2023-07-16T04:36:38;10.73;;;4.20;;
25948;SDS011;13961;51.178;4.448;2023-07-16T04:39:05;12.63;;;4.35;;
25948;SDS011;13961;51.178;4.448;2023-07-16T04:41:31;11.43;;;4.70;;
25948;SDS011;13961;51.178;4.448;2023-07-16T04:43:56;6.72;;;4.45;;
25948;SDS011;13961;51.178;4.448;2023-07-16T04:46:22;12.10;;;4.90;;
25948;SDS011;13961;51.178;4.448;2023-07-16T04:48:48;11.27;;;4.35;;
25948;SDS011;13961;51.178;4.448;2023-07-16T04:51:13;12.70;;;5.03;;
25948;SDS011;13961;51.178;4.448;2023-07-16T04:53:39;11.02;;;4.90;;
25948;SDS011;13961;51.178;4.448;2023-07-16T04:56:04;10.23;;;4.97;;
25948;SDS011;13961;51.178;4.448;2023-07-16T04:58:37;8.55;;;4.47;;
25948;SDS011;13961;51.178;4.448;2023-07-16T05:01:05;15.30;;;5.40;;
25948;SDS011;13961;51.178;4.448;2023-07-16T05:03:32;10.77;;;5.13;;
25948;SDS011;13961;51.178;4.448;2023-07-16T05:05:58;10.82;;;5.18;;
25948;SDS011;13961;51.178;4.448;2023-07-16T05:08:24;13.82;;;5.63;;
25948;SDS011;13961;51.178;4.448;2023-07-16T05:10:49;8.18;;;4.68;;
25948;SDS011;13961;51.178;4.448;2023-07-16T05:13:15;13.85;;;4.95;;
25948;SDS011;13961;51.178;4.448;2023-07-16T05:15:43;11.05;;;4.68;;
25948;SDS011;13961;51.178;4.448;2023-07-16T05:18:09;11.00;;;4.80;;
25948;SDS011;13961;51.178;4.448;2023-07-16T05:20:37;9.32;;;4.63;;
25948;SDS011;13961;51.178;4.448;2023-07-16T05:23:03;13.57;;;5.45;;
25948;SDS011;13961;51.178;4.448;2023-07-16T05:25:29;10.63;;;4.95;;
25948;SDS011;13961;51.178;4.448;2023-07-16T05:27:55;9.52;;;5.03;;
25948;SDS011;13961;51.178;4.448;2023-07-16T05:30:21;10.73;;;4.85;;
25948;SDS011;13961;51.178;4.448;2023-07-16T05:32:46;15.75;;;5.63;;
25948;SDS011;13961;51.178;4.448;2023-07-16T05:35:12;13.43;;;5.82;;
25948;SDS011;13961;51.178;4.448;2023-07-16T05:37:38;13.60;;;5.68;;
25948;SDS011;13961;51.178;4.448;2023-07-16T05:40:03;11.60;;;5.65;;
25948;SDS011;13961;51.178;4.448;2023-07-16T05:42:31;9.40;;;5.43;;
25948;SDS011;13961;51.178;4.448;2023-07-16T05:44:56;11.35;;;5.80;;
25948;SDS011;13961;51.178;4.448;2023-07-16T05:47:22;11.77;;;5.53;;
25948;SDS011;13961;51.178;4.448;2023-07-16T05:49:47;11.05;;;5.45;;
25948;SDS011;13961;51.178;4.448;2023-07-16T05:52:13;13.27;;;5.65;;
25948;SDS011;13961;51.178;4.448;2023-07-16T05:54:39;11.55;;;5.30;;
25948;SDS011;13961;51.178;4.448;2023-07-16T05:57:04;13.13;;;6.10;;
25948;SDS011;13961;51.178;4.448;2023-07-16T05:59:30;14.65;;;5.55;;
25948;SDS011;13961;51.178;4.448;2023-07-16T06:01:59;11.52;;;6.05;;
25948;SDS011;13961;51.178;4.448;2023-07-16T06:04:25;14.13;;;5.57;;
25948;SDS011;13961;51.178;4.448;2023-07-16T06:06:50;14.40;;;5.97;;
25948;SDS011;13961;51.178;4.448;2023-07-16T06:09:16;10.95;;;5.88;;
25948;SDS011;13961;51.178;4.448;2023-07-16T06:11:42;16.30;;;6.15;;
25948;SDS011;13961;51.178;4.448;2023-07-16T06:14:08;12.23;;;5.78;;
25948;SDS011;13961;51.178;4.448;2023-07-16T06:16:33;13.85;;;6.25;;
25948;SDS011;13961;51.178;4.448;2023-07-16T06:18:59;11.40;;;5.75;;
25948;SDS011;13961;51.178;4.448;2023-07-16T06:21:24;17.25;;;5.82;;
25948;SDS011;13961;51.178;4.448;2023-07-16T06:23:50;15.30;;;5.97;;
25948;SDS011;13961;51.178;4.448;2023-07-16T06:26:16;16.35;;;6.18;;
25948;SDS011;13961;51.178;4.448;2023-07-16T06:28:41;9.15;;;5.40;;
25948;SDS011;13961;51.178;4.448;2023-07-16T06:31:07;9.48;;;5.03;;
25948;SDS011;13961;51.178;4.448;2023-07-16T06:33:32;12.35;;;6.03;;
25948;SDS011;13961;51.178;4.448;2023-07-16T06:35:58;11.30;;;6.18;;
25948;SDS011;13961;51.178;4.448;2023-07-16T06:38:24;11.77;;;6.00;;
25948;SDS011;13961;51.178;4.448;2023-07-16T06:40:52;12.30;;;5.68;;
25948;SDS011;13961;51.178;4.448;2023-07-16T06:43:19;11.23;;;5.25;;
25948;SDS011;13961;51.178;4.448;2023-07-16T06:45:44;12.77;;;5.97;;
25948;SDS011;13961;51.178;4.448;2023-07-16T06:48:10;13.93;;;5.65;;
25948;SDS011;13961;51.178;4.448;2023-07-16T06:50:36;14.23;;;6.40;;
25948;SDS011;13961;51.178;4.448;2023-07-16T06:53:01;12.88;;;5.97;;
25948;SDS011;13961;51.178;4.448;2023-07-16T06:55:27;12.25;;;6.10;;
25948;SDS011;13961;51.178;4.448;2023-07-16T06:57:53;11.52;;;6.03;;
25948;SDS011;13961;51.178;4.448;2023-07-16T07:00:18;11.27;;;5.40;;
25948;SDS011;13961;51.178;4.448;2023-07-16T07:02:44;8.02;;;5.55;;
25948;SDS011;13961;51.178;4.448;2023-07-16T07:05:09;8.98;;;5.05;;
25948;SDS011;13961;51.178;4.448;2023-07-16T07:07:35;11.88;;;6.03;;
25948;SDS011;13961;51.178;4.448;2023-07-16T07:10:01;9.98;;;5.88;;
25948;SDS011;13961;51.178;4.448;2023-07-16T07:12:26;12.98;;;5.80;;
25948;SDS011;13961;51.178;4.448;2023-07-16T07:14:52;8.70;;;5.88;;
25948;SDS011;13961;51.178;4.448;2023-07-16T07:17:18;9.70;;;5.43;;
25948;SDS011;13961;51.178;4.448;2023-07-16T07:19:43;11.90;;;5.70;;
25948;SDS011;13961;51.178;4.448;2023-07-16T07:22:09;10.32;;;5.75;;
25948;SDS011;13961;51.178;4.448;2023-07-16T07:24:35;11.00;;;5.63;;
25948;SDS011;13961;51.178;4.448;2023-07-16T07:27:01;10.40;;;6.00;;
25948;SDS011;13961;51.178;4.448;2023-07-16T07:29:27;12.80;;;6.10;;
25948;SDS011;13961;51.178;4.448;2023-07-16T07:31:53;13.25;;;5.18;;
25948;SDS011;13961;51.178;4.448;2023-07-16T07:34:18;9.68;;;5.68;;
25948;SDS011;13961;51.178;4.448;2023-07-16T07:36:45;10.55;;;5.70;;
25948;SDS011;13961;51.178;4.448;2023-07-16T07:39:11;11.15;;;5.53;;
25948;SDS011;13961;51.178;4.448;2023-07-16T07:41:41;10.00;;;5.72;;
25948;SDS011;13961;51.178;4.448;2023-07-16T07:44:07;10.13;;;5.78;;
25948;SDS011;13961;51.178;4.448;2023-07-16T07:46:32;10.32;;;5.30;;
25948;SDS011;13961;51.178;4.448;2023-07-16T07:48:58;12.20;;;5.32;;
25948;SDS011;13961;51.178;4.448;2023-07-16T07:51:24;10.05;;;5.45;;
25948;SDS011;13961;51.178;4.448;2023-07-16T07:53:49;13.43;;;6.03;;
25948;SDS011;13961;51.178;4.448;2023-07-16T07:56:15;7.80;;;5.22;;
25948;SDS011;13961;51.178;4.448;2023-07-16T07:58:40;10.15;;;5.78;;
25948;SDS011;13961;51.178;4.448;2023-07-16T08:01:06;10.73;;;5.47;;
25948;SDS011;13961;51.178;4.448;2023-07-16T08:03:33;9.68;;;5.07;;
25948;SDS011;13961;51.178;4.448;2023-07-16T08:05:59;11.75;;;6.00;;
25948;SDS011;13961;51.178;4.448;2023-07-16T08:08:24;10.57;;;5.30;;
25948;SDS011;13961;51.178;4.448;2023-07-16T08:10:50;9.10;;;5.60;;
25948;SDS011;13961;51.178;4.448;2023-07-16T08:13:17;11.30;;;5.28;;
25948;SDS011;13961;51.178;4.448;2023-07-16T08:15:45;10.75;;;5.55;;
25948;SDS011;13961;51.178;4.448;2023-07-16T08:18:12;10.60;;;5.72;;
25948;SDS011;13961;51.178;4.448;2023-07-16T08:20:38;10.93;;;5.45;;
25948;SDS011;13961;51.178;4.448;2023-07-16T08:23:05;13.88;;;5.95;;
25948;SDS011;13961;51.178;4.448;2023-07-16T08:25:34;9.63;;;5.38;;
25948;SDS011;13961;51.178;4.448;2023-07-16T08:28:01;11.32;;;5.53;;
25948;SDS011;13961;51.178;4.448;2023-07-16T08:30:27;11.73;;;5.45;;
25948;SDS011;13961;51.178;4.448;2023-07-16T08:32:53;11.98;;;5.78;;
25948;SDS011;13961;51.178;4.448;2023-07-16T08:35:19;13.55;;;5.80;;
25948;SDS011;13961;51.178;4.448;2023-07-16T08:37:45;14.43;;;5.90;;
25948;SDS011;13961;51.178;4.448;2023-07-16T08:40:11;10.35;;;6.03;;
25948;SDS011;13961;51.178;4.448;2023-07-16T08:42:38;9.93;;;5.60;;
25948;SDS011;13961;51.178;4.448;2023-07-16T08:45:09;11.40;;;5.65;;
25948;SDS011;13961;51.178;4.448;2023-07-16T08:47:36;10.43;;;5.18;;
25948;SDS011;13961;51.178;4.448;2023-07-16T08:50:02;10.35;;;4.88;;
25948;SDS011;13961;51.178;4.448;2023-07-16T08:52:28;10.20;;;4.93;;
25948;SDS011;13961;51.178;4.448;2023-07-16T08:54:54;12.63;;;5.50;;
25948;SDS011;13961;51.178;4.448;2023-07-16T08:57:20;12.07;;;4.95;;
25948;SDS011;13961;51.178;4.448;2023-07-16T08:59:50;11.55;;;5.38;;
25948;SDS011;13961;51.178;4.448;2023-07-16T09:02:19;10.27;;;5.70;;
25948;SDS011;13961;51.178;4.448;2023-07-16T09:04:48;10.20;;;4.90;;
25948;SDS011;13961;51.178;4.448;2023-07-16T09:07:19;10.57;;;5.50;;
25948;SDS011;13961;51.178;4.448;2023-07-16T09:09:58;11.40;;;5.60;;
25948;SDS011;13961;51.178;4.448;2023-07-16T09:12:25;10.27;;;5.03;;
25948;SDS011;13961;51.178;4.448;2023-07-16T09:14:50;9.88;;;5.20;;
25948;SDS011;13961;51.178;4.448;2023-07-16T09:17:21;9.38;;;5.03;;
25948;SDS011;13961;51.178;4.448;2023-07-16T09:19:52;13.00;;;5.32;;
25948;SDS011;13961;51.178;4.448;2023-07-16T09:22:19;12.40;;;5.18;;
25948;SDS011;13961;51.178;4.448;2023-07-16T09:24:48;11.55;;;4.70;;
25948;SDS011;13961;51.178;4.448;2023-07-16T09:27:13;9.63;;;4.78;;
25948;SDS011;13961;51.178;4.448;2023-07-16T09:29:39;9.90;;;5.15;;
25948;SDS011;13961;51.178;4.448;2023-07-16T09:32:06;12.07;;;4.97;;
25948;SDS011;13961;51.178;4.448;2023-07-16T09:34:32;9.10;;;5.07;;
25948;SDS011;13961;51.178;4.448;2023-07-16T09:36:58;12.63;;;5.55;;
25948;SDS011;13961;51.178;4.448;2023-07-16T09:39:24;10.98;;;5.05;;
25948;SDS011;13961;51.178;4.448;2023-07-16T09:41:51;9.15;;;5.00;;
25948;SDS011;13961;51.178;4.448;2023-07-16T09:44:17;12.23;;;6.30;;
25948;SDS011;13961;51.178;4.448;2023-07-16T09:46:44;11.55;;;4.88;;
25948;SDS011;13961;51.178;4.448;2023-07-16T09:49:11;13.13;;;5.35;;
25948;SDS011;13961;51.178;4.448;2023-07-16T09:51:37;12.23;;;5.13;;
25948;SDS011;13961;51.178;4.448;2023-07-16T09:54:03;8.38;;;4.82;;
25948;SDS011;13961;51.178;4.448;2023-07-16T09:56:37;10.32;;;4.95;;
25948;SDS011;13961;51.178;4.448;2023-07-16T09:59:05;8.77;;;4.97;;
25948;SDS011;13961;51.178;4.448;2023-07-16T10:01:36;12.73;;;5.57;;
25948;SDS011;13961;51.178;4.448;2023-07-16T10:04:12;12.90;;;5.45;;
25948;SDS011;13961;51.178;4.448;2023-07-16T10:12:19;11.82;;;5.30;;
25948;SDS011;13961;51.178;4.448;2023-07-16T10:14:46;17.13;;;5.57;;
25948;SDS011;13961;51.178;4.448;2023-07-16T10:17:14;10.32;;;5.13;;
25948;SDS011;13961;51.178;4.448;2023-07-16T10:19:57;13.68;;;5.40;;
25948;SDS011;13961;51.178;4.448;2023-07-16T10:22:33;11.88;;;5.75;;
25948;SDS011;13961;51.178;4.448;2023-07-16T10:25:10;10.30;;;6.00;;
25948;SDS011;13961;51.178;4.448;2023-07-16T10:27:53;11.23;;;5.10;;
25948;SDS011;13961;51.178;4.448;2023-07-16T10:30:48;9.93;;;5.10;;
25948;SDS011;13961;51.178;4.448;2023-07-16T10:33:19;11.43;;;5.60;;
25948;SDS011;13961;51.178;4.448;2023-07-16T10:35:45;11.35;;;4.93;;
25948;SDS011;13961;51.178;4.448;2023-07-16T10:38:11;13.02;;;5.32;;
25948;SDS011;13961;51.178;4.448;2023-07-16T10:40:40;10.35;;;5.30;;
25948;SDS011;13961;51.178;4.448;2023-07-16T10:43:07;11.85;;;5.13;;
25948;SDS011;13961;51.178;4.448;2023-07-16T10:45:37;8.90;;;5.03;;
25948;SDS011;13961;51.178;4.448;2023-07-16T10:48:03;9.80;;;4.97;;
25948;SDS011;13961;51.178;4.448;2023-07-16T10:50:31;12.73;;;5.60;;
25948;SDS011;13961;51.178;4.448;2023-07-16T10:52:58;13.48;;;5.30;;
25948;SDS011;13961;51.178;4.448;2023-07-16T10:55:25;8.60;;;5.03;;
25948;SDS011;13961;51.178;4.448;2023-07-16T10:57:52;11.27;;;5.38;;
25948;SDS011;13961;51.178;4.448;2023-07-16T11:00:21;11.18;;;5.68;;
25948;SDS011;13961;51.178;4.448;2023-07-16T11:02:51;13.15;;;5.60;;
25948;SDS011;13961;51.178;4.448;2023-07-16T11:05:17;10.80;;;5.20;;
25948;SDS011;13961;51.178;4.448;2023-07-16T11:07:44;11.65;;;5.53;;
25948;SDS011;13961;51.178;4.448;2023-07-16T11:10:11;12.20;;;5.15;;
25948;SDS011;13961;51.178;4.448;2023-07-16T11:12:43;12.38;;;5.10;;
25948;SDS011;13961;51.178;4.448;2023-07-16T11:15:09;7.40;;;4.65;;
25948;SDS011;13961;51.178;4.448;2023-07-16T11:17:38;10.63;;;4.68;;
25948;SDS011;13961;51.178;4.448;2023-07-16T11:20:06;8.70;;;4.38;;
25948;SDS011;13961;51.178;4.448;2023-07-16T11:22:33;8.88;;;4.22;;
25948;SDS011;13961;51.178;4.448;2023-07-16T11:25:03;8.93;;;4.47;;
25948;SDS011;13961;51.178;4.448;2023-07-16T11:27:32;7.28;;;4.25;;
25948;SDS011;13961;51.178;4.448;2023-07-16T11:34:53;7.40;;;4.00;;
25948;SDS011;13961;51.178;4.448;2023-07-16T11:37:20;6.47;;;2.97;;
25948;SDS011;13961;51.178;4.448;2023-07-16T11:39:46;7.10;;;3.33;;
25948;SDS011;13961;51.178;4.448;2023-07-16T11:42:13;5.10;;;2.90;;
25948;SDS011;13961;51.178;4.448;2023-07-16T11:44:38;5.82;;;2.97;;
25948;SDS011;13961;51.178;4.448;2023-07-16T11:47:04;7.20;;;3.00;;
25948;SDS011;13961;51.178;4.448;2023-07-16T11:49:30;7.50;;;2.90;;
25948;SDS011;13961;51.178;4.448;2023-07-16T11:51:56;6.88;;;2.65;;
25948;SDS011;13961;51.178;4.448;2023-07-16T11:54:23;5.55;;;2.58;;
25948;SDS011;13961;51.178;4.448;2023-07-16T11:56:49;6.63;;;2.80;;
25948;SDS011;13961;51.178;4.448;2023-07-16T11:59:15;4.60;;;2.70;;
25948;SDS011;13961;51.178;4.448;2023-07-16T12:01:45;4.82;;;2.85;;
25948;SDS011;13961;51.178;4.448;2023-07-16T12:04:13;5.60;;;2.50;;
25948;SDS011;13961;51.178;4.448;2023-07-16T12:06:39;6.45;;;2.65;;
25948;SDS011;13961;51.178;4.448;2023-07-16T12:09:04;4.03;;;2.58;;
25948;SDS011;13961;51.178;4.448;2023-07-16T12:11:31;5.25;;;2.80;;
25948;SDS011;13961;51.178;4.448;2023-07-16T12:13:56;8.65;;;2.78;;
25948;SDS011;13961;51.178;4.448;2023-07-16T12:16:22;5.38;;;2.70;;
25948;SDS011;13961;51.178;4.448;2023-07-16T12:18:47;5.13;;;2.78;;
25948;SDS011;13961;51.178;4.448;2023-07-16T12:21:13;5.07;;;2.50;;
25948;SDS011;13961;51.178;4.448;2023-07-16T12:23:39;7.82;;;3.15;;
25948;SDS011;13961;51.178;4.448;2023-07-16T12:26:04;6.95;;;3.00;;
25948;SDS011;13961;51.178;4.448;2023-07-16T12:28:30;6.78;;;3.15;;
25948;SDS011;13961;51.178;4.448;2023-07-16T12:30:56;5.95;;;3.30;;
25948;SDS011;13961;51.178;4.448;2023-07-16T12:33:27;5.25;;;3.25;;
25948;SDS011;13961;51.178;4.448;2023-07-16T12:35:53;6.45;;;3.28;;
25948;SDS011;13961;51.178;4.448;2023-07-16T12:38:18;6.95;;;3.30;;
25948;SDS011;13961;51.178;4.448;2023-07-16T12:40:44;5.72;;;3.28;;
25948;SDS011;13961;51.178;4.448;2023-07-16T12:43:10;7.15;;;3.90;;
25948;SDS011;13961;51.178;4.448;2023-07-16T12:45:35;6.65;;;3.50;;
25948;SDS011;13961;51.178;4.448;2023-07-16T12:48:01;8.25;;;3.53;;
25948;SDS011;13961;51.178;4.448;2023-07-16T12:50:27;5.55;;;3.28;;
25948;SDS011;13961;51.178;4.448;2023-07-16T12:52:54;5.22;;;3.22;;
25948;SDS011;13961;51.178;4.448;2023-07-16T12:55:19;5.88;;;3.33;;
25948;SDS011;13961;51.178;4.448;2023-07-16T12:57:45;7.05;;;3.33;;
25948;SDS011;13961;51.178;4.448;2023-07-16T13:00:11;7.25;;;3.40;;
25948;SDS011;13961;51.178;4.448;2023-07-16T13:02:36;7.72;;;3.60;;
25948;SDS011;13961;51.178;4.448;2023-07-16T13:05:03;7.07;;;3.58;;
25948;SDS011;13961;51.178;4.448;2023-07-16T13:07:29;5.53;;;3.35;;
25948;SDS011;13961;51.178;4.448;2023-07-16T13:09:56;4.60;;;3.08;;
25948;SDS011;13961;51.178;4.448;2023-07-16T13:12:22;8.38;;;3.13;;
25948;SDS011;13961;51.178;4.448;2023-07-16T13:14:48;5.43;;;2.88;;
25948;SDS011;13961;51.178;4.448;2023-07-16T13:17:13;7.40;;;3.47;;
25948;SDS011;13961;51.178;4.448;2023-07-16T13:19:41;5.88;;;3.53;;
25948;SDS011;13961;51.178;4.448;2023-07-16T13:22:07;6.07;;;3.15;;
25948;SDS011;13961;51.178;4.448;2023-07-16T13:24:32;6.28;;;3.08;;
25948;SDS011;13961;51.178;4.448;2023-07-16T13:26:58;6.03;;;3.17;;
25948;SDS011;13961;51.178;4.448;2023-07-16T13:29:24;6.15;;;3.70;;
25948;SDS011;13961;51.178;4.448;2023-07-16T13:31:49;5.88;;;3.05;;
25948;SDS011;13961;51.178;4.448;2023-07-16T13:34:15;4.68;;;2.90;;
25948;SDS011;13961;51.178;4.448;2023-07-16T13:36:41;5.43;;;3.05;;
25948;SDS011;13961;51.178;4.448;2023-07-16T13:39:06;5.05;;;3.05;;
25948;SDS011;13961;51.178;4.448;2023-07-16T13:41:32;5.00;;;3.20;;
25948;SDS011;13961;51.178;4.448;2023-07-16T13:43:58;5.32;;;3.30;;
25948;SDS011;13961;51.178;4.448;2023-07-16T13:46:24;6.88;;;2.92;;
25948;SDS011;13961;51.178;4.448;2023-07-16T13:48:49;6.03;;;3.40;;
25948;SDS011;13961;51.178;4.448;2023-07-16T13:51:15;7.18;;;3.22;;
25948;SDS011;13961;51.178;4.448;2023-07-16T13:53:41;5.38;;;3.10;;
25948;SDS011;13961;51.178;4.448;2023-07-16T13:56:06;4.25;;;3.08;;
25948;SDS011;13961;51.178;4.448;2023-07-16T13:58:33;5.60;;;2.90;;
25948;SDS011;13961;51.178;4.448;2023-07-16T14:00:59;8.05;;;3.00;;
25948;SDS011;13961;51.178;4.448;2023-07-16T14:03:24;4.30;;;1.75;;
25948;SDS011;13961;51.178;4.448;2023-07-16T14:05:51;2.53;;;1.40;;
25948;SDS011;13961;51.178;4.448;2023-07-16T14:08:17;2.25;;;1.30;;
25948;SDS011;13961;51.178;4.448;2023-07-16T14:10:42;2.10;;;1.20;;
25948;SDS011;13961;51.178;4.448;2023-07-16T14:13:08;3.97;;;1.38;;
25948;SDS011;13961;51.178;4.448;2023-07-16T14:15:33;2.55;;;1.30;;
25948;SDS011;13961;51.178;4.448;2023-07-16T14:17:59;1.77;;;1.23;;
25948;SDS011;13961;51.178;4.448;2023-07-16T14:20:25;2.55;;;1.40;;
25948;SDS011;13961;51.178;4.448;2023-07-16T14:22:50;2.58;;;1.38;;
25948;SDS011;13961;51.178;4.448;2023-07-16T14:25:16;2.22;;;1.45;;
25948;SDS011;13961;51.178;4.448;2023-07-16T14:27:42;4.45;;;1.30;;
25948;SDS011;13961;51.178;4.448;2023-07-16T14:30:08;1.55;;;1.05;;
25948;SDS011;13961;51.178;4.448;2023-07-16T14:32:35;2.67;;;1.00;;
25948;SDS011;13961;51.178;4.448;2023-07-16T14:35:01;2.60;;;0.95;;
25948;SDS011;13961;51.178;4.448;2023-07-16T14:37:27;1.80;;;0.90;;
25948;SDS011;13961;51.178;4.448;2023-07-16T14:39:52;1.30;;;0.90;;
25948;SDS011;13961;51.178;4.448;2023-07-16T14:42:18;3.33;;;0.90;;
25948;SDS011;13961;51.178;4.448;2023-07-16T14:44:43;1.33;;;0.90;;
25948;SDS011;13961;51.178;4.448;2023-07-16T14:47:09;2.03;;;1.10;;
25948;SDS011;13961;51.178;4.448;2023-07-16T14:49:35;1.30;;;1.08;;
25948;SDS011;13961;51.178;4.448;2023-07-16T14:52:00;2.63;;;1.38;;
25948;SDS011;13961;51.178;4.448;2023-07-16T14:54:26;3.53;;;1.40;;
25948;SDS011;13961;51.178;4.448;2023-07-16T14:56:51;3.67;;;1.30;;
25948;SDS011;13961;51.178;4.448;2023-07-16T14:59:17;3.67;;;1.52;;